Главная страница
METAR-TAF:

METAR-TAF

Аэропорты :

Гаруа, Камерун

широта: 09-20N, долгота: 013-23E, высота над уровнем моря: 242 м

Текущие метеонаблюдения

Эта сводка был подготовлена 11 часа и 16 минут назад, в 16:00 UTC
Ветер 2 Узел переменных направлений
Температура 40°C
Влажность 23%
Давление 1005 hPa
Видимость 10 км и более
Нет облачности ниже 1500 м, и нет кучево-дождевой облачности

METAR: FKKR 191600Z VRB02KT CAVOK 40/15 Q1005 NOSIG

Время: 04:16 (03:16 UTC)

Прогноз

Эта сводка был подготовлена 22 часа и 16 минут назад, в 05:00 UTC
Прогноз действительный с 19-го 06 UTC до 19-го 18 UTC
Ветер 6 Узел переменных направлений
Видимость 10 км и более
небольшая облачность на высоте 2000 фута

TAF: FKKR 190500Z 1906/1918 VRB06KT 9999 FEW020

Метеонаблюдения и прогнозы для более 4000 аэропортов (сводки METAR и TAF).

Имеющиеся станции представлены на карте желтыми и красными точками.

Чтобы увидеть название станции, наведите на нее мышь.

Затем щелкните, чтобы увидеть метеонаблюдения и метеопрогнозы.

Управление картой: чтобы увеличить масштаб, щелкните зеленые кнопки с черным крестиком; чтобы уменьшить масштаб, щелкните зеленую кнопку с тире; для просмотра соседних карт щелкайте зеленые стрелки.


METAR-TAF: